Time;durP1;ratioP1;P1;durP2;ratioP2;P2;SDS_P1;SDS_P2;PMS_P1;PMS_P2;Temp;Humidity;BMP_temperature;BMP_pressure;BME280_temperature;BME280_humidity;BME280_pressure;Samples;Min_cycle;Max_cycle;Signal;HPM_P1;HPM_P2
2023/01/27 00:01:22;;;;;;;11.35;3.85;;;;;;;3.29;100.00;102126.16;6220149;23;19997;-96
2023/01/27 00:03:56;;;;;;;8.52;3.88;;;;;;;3.26;100.00;102121.03;6219708;23;20008;-96
2023/01/27 00:06:22;;;;;;;5.63;3.33;;;;;;;3.17;100.00;102105.72;6220258;23;20435;-95
2023/01/27 00:08:48;;;;;;;11.65;3.60;;;;;;;3.12;100.00;102117.63;6219491;23;20032;-96
2023/01/27 00:14:00;;;;;;;10.10;3.97;;;;;;;3.39;100.00;102153.38;6221162;23;20011;-96
2023/01/27 00:16:27;;;;;;;7.97;3.00;;;;;;;3.29;100.00;102118.50;6221569;23;20115;-96
2023/01/27 00:18:55;;;;;;;8.23;2.67;;;;;;;3.46;98.68;102138.03;6220448;23;20008;-96
2023/01/27 00:26:49;;;;;;;8.77;2.25;;;;;;;3.22;92.05;102114.25;6222044;23;20473;-96
2023/01/27 00:29:17;;;;;;;6.50;2.20;;;;;;;3.25;91.21;102111.69;6221627;23;20028;-95
2023/01/27 00:34:28;;;;;;;6.20;2.17;;;;;;;3.22;89.77;102117.63;6222036;23;20016;-96
2023/01/27 00:36:53;;;;;;;5.05;2.20;;;;;;;2.92;90.57;102090.41;6220752;23;20008;-95
2023/01/27 00:39:19;;;;;;;6.75;2.25;;;;;;;2.78;89.44;102079.34;6223470;22;20008;-95
2023/01/27 00:41:45;;;;;;;7.95;2.22;;;;;;;2.83;89.05;102090.41;6226608;23;20019;-95
2023/01/27 00:44:17;;;;;;;5.07;2.22;;;;;;;2.75;89.36;102076.78;6226528;22;20020;-96
2023/01/27 00:46:43;;;;;;;7.50;2.80;;;;;;;2.59;89.93;102075.94;6226747;22;20008;-95
2023/01/27 00:49:12;;;;;;;8.20;2.90;;;;;;;2.65;91.95;102078.47;6226744;23;20000;-96
2023/01/27 00:51:41;;;;;;;7.15;3.00;;;;;;;2.66;92.53;102080.19;6224981;23;20075;-96
2023/01/27 00:54:10;;;;;;;10.02;3.45;;;;;;;2.55;93.57;102075.06;6226894;23;20007;-94
2023/01/27 00:56:38;;;;;;;9.05;3.28;;;;;;;2.66;94.79;102071.66;6228209;22;20004;-95
2023/01/27 00:59:07;;;;;;;5.20;3.13;;;;;;;2.83;94.69;102089.53;6226215;23;20014;-96
2023/01/27 01:01:37;;;;;;;7.15;3.47;;;;;;;2.64;95.81;102074.22;6224649;22;20028;-95
2023/01/27 01:04:06;;;;;;;6.68;2.88;;;;;;;2.77;95.89;102080.19;6225878;23;20028;-95
2023/01/27 01:06:34;;;;;;;9.15;3.63;;;;;;;2.84;95.75;102081.91;6226503;22;20000;-95
2023/01/27 01:09:03;;;;;;;12.40;3.78;;;;;;;2.72;95.45;102064.03;6225588;22;20419;-95
2023/01/27 01:11:30;;;;;;;9.50;4.00;;;;;;;2.89;96.34;102105.72;6225405;22;20439;-94
2023/01/27 01:13:58;;;;;;;15.27;3.85;;;;;;;2.80;96.80;102072.53;6224841;22;20076;-96
2023/01/27 01:16:25;;;;;;;14.25;4.00;;;;;;;2.76;97.89;102066.59;6224185;23;20036;-96
2023/01/27 01:18:50;;;;;;;9.20;3.58;;;;;;;2.83;98.97;102059.81;6225081;22;20073;-96
2023/01/27 01:21:19;;;;;;;9.25;3.78;;;;;;;2.86;99.04;102062.34;6224662;22;20023;-96
2023/01/27 01:23:48;;;;;;;9.27;3.53;;;;;;;2.91;99.09;102053.00;6224331;23;20000;-95
2023/01/27 01:26:15;;;;;;;8.50;3.72;;;;;;;3.00;99.53;102060.66;6224908;22;20001;-95
2023/01/27 01:28:43;;;;;;;11.45;4.50;;;;;;;3.00;99.44;102047.91;6225167;22;20075;-95
2023/01/27 01:31:13;;;;;;;13.82;4.38;;;;;;;2.96;99.37;102051.31;6224269;22;20004;-95
2023/01/27 01:33:42;;;;;;;8.13;3.50;;;;;;;3.13;98.16;102053.00;6226275;22;20650;-95
2023/01/27 01:36:17;;;;;;;11.15;4.07;;;;;;;3.16;98.68;102050.44;6222878;22;20488;-96
2023/01/27 01:38:44;;;;;;;7.32;3.85;;;;;;;3.13;98.20;102048.75;6224736;22;20011;-96
2023/01/27 01:41:13;;;;;;;13.85;3.88;;;;;;;3.30;97.78;102071.69;6219525;23;20108;-95
2023/01/27 01:43:42;;;;;;;8.38;3.63;;;;;;;3.16;97.49;102043.63;6219457;23;20004;-96
2023/01/27 01:46:09;;;;;;;11.40;3.33;;;;;;;3.06;97.62;102028.34;6219708;23;20083;-96
2023/01/27 01:48:52;;;;;;;6.82;3.70;;;;;;;3.20;97.28;102034.28;6218498;23;20000;-96
2023/01/27 01:51:40;;;;;;;9.38;4.13;;;;;;;3.32;99.46;102054.69;6219109;23;20058;-95
2023/01/27 01:54:15;;;;;;;11.43;3.90;;;;;;;3.25;100.00;102078.50;6217661;23;20435;-96
2023/01/27 01:56:57;;;;;;;15.73;3.80;;;;;;;2.91;100.00;102041.97;6218568;23;20051;-95
2023/01/27 01:59:52;;;;;;;9.13;3.93;;;;;;;2.79;100.00;102030.06;6219280;23;20137;-95
2023/01/27 02:02:20;;;;;;;12.43;4.47;;;;;;;2.72;100.00;102030.91;6219542;23;20079;-95
2023/01/27 02:04:52;;;;;;;12.85;3.60;;;;;;;2.48;100.00;102031.72;6219400;23;20032;-95
2023/01/27 02:07:25;;;;;;;11.85;4.22;;;;;;;2.50;100.00;102056.34;6217441;23;20083;-95
2023/01/27 02:09:53;;;;;;;7.07;3.50;;;;;;;2.13;100.00;102024.84;6218345;23;20076;-95
2023/01/27 02:12:24;;;;;;;5.43;3.33;;;;;;;1.93;100.00;102012.06;6219833;23;20008;-96
2023/01/27 02:14:53;;;;;;;6.45;3.30;;;;;;;1.99;100.00;102029.03;6219838;23;20055;-95
2023/01/27 02:17:59;;;;;;;9.80;3.50;;;;;;;1.83;100.00;102020.47;6222019;23;20068;-96
2023/01/27 02:20:48;;;;;;;14.77;3.75;;;;;;;1.93;100.00;102052.78;6230577;23;20007;-96
2023/01/27 02:24:18;;;;;;;11.43;4.10;;;;;;;1.67;100.00;102025.50;6230261;23;20083;-96
2023/01/27 02:26:53;;;;;;;9.10;3.78;;;;;;;1.70;100.00;102053.50;6180879;23;20087;-95
2023/01/27 02:29:21;;;;;;;9.05;3.95;;;;;;;1.50;100.00;102020.31;6215532;23;20396;-93
2023/01/27 02:31:46;;;;;;;12.50;5.05;;;;;;;1.29;100.00;102002.38;6215492;23;20005;-95
2023/01/27 02:34:16;;;;;;;13.07;3.42;;;;;;;1.43;100.00;102030.47;6215269;23;20079;-96
2023/01/27 02:36:46;;;;;;;5.07;3.53;;;;;;;1.24;100.00;102004.94;6214942;23;20008;-94
2023/01/27 02:39:15;;;;;;;10.30;4.05;;;;;;;1.42;100.00;102021.16;6216297;22;20005;-94
2023/01/27 02:41:43;;;;;;;8.07;3.72;;;;;;;1.25;100.00;102000.69;6219688;22;20054;-95
2023/01/27 02:44:09;;;;;;;6.53;3.38;;;;;;;1.14;100.00;102007.38;6220289;23;20474;-95
2023/01/27 02:46:36;;;;;;;6.75;3.80;;;;;;;1.35;100.00;102014.31;6219856;23;19997;-94
2023/01/27 02:49:01;;;;;;;9.45;3.75;;;;;;;1.31;100.00;101997.31;6220127;23;20000;-94
2023/01/27 02:51:27;;;;;;;5.43;2.97;;;;;;;1.42;100.00;102044.03;6219823;22;20011;-94
2023/01/27 02:53:53;;;;;;;8.73;3.33;;;;;;;1.21;100.00;102015.06;6220712;23;20011;-96
2023/01/27 02:56:19;;;;;;;10.18;3.95;;;;;;;1.12;100.00;101999.72;6219068;22;20000;-95
2023/01/27 02:58:45;;;;;;;12.93;4.20;;;;;;;1.13;100.00;102011.63;6220433;23;20398;-94
2023/01/27 03:01:10;;;;;;;11.35;4.03;;;;;;;1.35;100.00;102035.50;6219630;23;20050;-95
2023/01/27 03:03:45;;;;;;;5.18;3.42;;;;;;;1.34;100.00;102012.59;6219042;22;20434;-94
2023/01/27 03:06:12;;;;;;;7.70;3.78;;;;;;;1.15;100.00;101999.78;6218685;22;20020;-94
2023/01/27 03:08:37;;;;;;;9.93;3.92;;;;;;;1.34;100.00;102004.97;6218907;22;20494;-94
2023/01/27 03:11:03;;;;;;;6.30;4.20;;;;;;;1.40;100.00;102018.56;6218430;22;20027;-95
2023/01/27 03:13:28;;;;;;;9.48;3.92;;;;;;;1.15;100.00;101984.53;6219512;23;20007;-95
2023/01/27 03:18:46;;;;;;;5.15;3.42;;;;;;;1.38;100.00;102002.44;6245724;22;20047;-95
2023/01/27 03:21:12;;;;;;;10.00;4.78;;;;;;;1.39;100.00;102003.28;6219103;22;20054;-95
2023/01/27 03:23:38;;;;;;;9.52;4.10;;;;;;;1.54;100.00;102033.94;6219904;23;20004;-95
2023/01/27 03:26:08;;;;;;;8.30;3.85;;;;;;;1.21;100.00;102002.34;6218615;22;20003;-94
2023/01/27 03:28:35;;;;;;;6.53;4.18;;;;;;;1.09;100.00;101979.38;6219035;22;20004;-94
2023/01/27 03:31:07;;;;;;;10.98;3.55;;;;;;;1.06;100.00;101989.53;6218693;22;20000;-96
2023/01/27 03:33:33;;;;;;;10.27;4.68;;;;;;;1.14;100.00;101976.88;6219743;23;20000;-96
2023/01/27 03:47:01;;;;;;;11.70;3.83;;;;;;;0.79;100.00;101985.09;6246508;22;20011;-95
2023/01/27 03:49:26;;;;;;;7.15;3.50;;;;;;;0.79;100.00;101967.31;6219236;23;20004;-95
2023/01/27 03:51:52;;;;;;;7.22;3.55;;;;;;;1.06;100.00;102014.97;6219995;22;20078;-95
2023/01/27 03:54:18;;;;;;;9.13;3.50;;;;;;;0.79;100.00;101975.78;6220331;22;20011;-94
2023/01/27 03:56:44;;;;;;;8.23;3.70;;;;;;;0.88;100.00;102009.72;6219643;22;20000;-95
2023/01/27 03:59:09;;;;;;;6.32;3.28;;;;;;;0.74;100.00;101971.53;6219701;22;20011;-94
2023/01/27 04:01:35;;;;;;;4.93;3.35;;;;;;;0.67;100.00;101980.78;6220593;22;20039;-95
2023/01/27 04:07:01;;;;;;;8.35;3.30;;;;;;;0.42;100.00;101980.56;6245547;22;20011;-95
2023/01/27 04:09:35;;;;;;;4.43;2.70;;;;;;;0.38;100.00;102003.38;6219021;22;20008;-95
2023/01/27 04:12:04;;;;;;;6.55;3.03;;;;;;;0.10;100.00;101976.84;6219670;22;20525;-94
2023/01/27 04:14:40;;;;;;;6.93;3.08;;;;;;;0.18;100.00;102010.78;6219509;22;20008;-95
2023/01/27 04:17:12;;;;;;;7.43;3.17;;;;;;;0.31;100.00;102006.69;6218786;22;20008;-95
2023/01/27 04:19:38;;;;;;;6.72;3.25;;;;;;;0.12;100.00;101992.94;6218882;23;20027;-95
2023/01/27 04:22:04;;;;;;;5.40;3.20;;;;;;;0.00;100.00;101968.31;6219204;23;20008;-95
2023/01/27 04:24:30;;;;;;;6.65;3.33;;;;;;;0.16;100.00;101974.38;6219099;23;20427;-96
2023/01/27 04:26:58;;;;;;;6.07;3.58;;;;;;;0.30;100.00;101960.13;6219262;22;20004;-96
2023/01/27 04:29:27;;;;;;;8.00;3.97;;;;;;;0.77;100.00;101986.78;6219780;22;20008;-94
2023/01/27 04:31:53;;;;;;;8.27;3.97;;;;;;;0.89;100.00;102002.13;6219190;22;20430;-95
2023/01/27 04:34:19;;;;;;;6.90;3.83;;;;;;;0.85;100.00;101974.97;6219320;22;20004;-96
2023/01/27 04:36:46;;;;;;;5.88;3.58;;;;;;;0.97;100.00;101979.31;6219090;22;20457;-95
2023/01/27 04:39:12;;;;;;;8.95;4.18;;;;;;;1.07;100.00;101973.44;6219054;22;20005;-95
2023/01/27 04:41:37;;;;;;;10.38;5.03;;;;;;;1.32;100.00;101969.38;6219931;22;20331;-96
2023/01/27 04:44:04;;;;;;;5.50;4.20;;;;;;;1.47;100.00;101991.50;6219029;23;20008;-94
2023/01/27 04:46:30;;;;;;;7.35;3.90;;;;;;;1.50;100.00;101966.03;6219159;22;20026;-96
2023/01/27 04:48:56;;;;;;;8.45;4.95;;;;;;;1.58;100.00;101974.56;6218806;22;20418;-95
2023/01/27 04:51:21;;;;;;;8.68;5.75;;;;;;;1.63;100.00;101962.69;6219013;23;20007;-95
2023/01/27 04:53:47;;;;;;;6.72;4.32;;;;;;;1.85;100.00;101983.16;6219437;23;20087;-95
2023/01/27 04:56:31;;;;;;;6.57;4.05;;;;;;;1.90;100.00;101963.66;6219276;22;20004;-93
2023/01/27 04:59:01;;;;;;;7.15;4.70;;;;;;;1.90;100.00;101971.28;6219462;22;20335;-95
2023/01/27 05:01:27;;;;;;;6.00;4.18;;;;;;;1.95;100.00;101976.38;6220311;22;20000;-94
2023/01/27 05:03:53;;;;;;;6.70;4.55;;;;;;;2.11;100.00;101985.78;6219516;22;20076;-96
2023/01/27 05:06:19;;;;;;;6.15;4.78;;;;;;;2.20;100.00;101984.97;6219079;22;20008;-94
2023/01/27 05:08:45;;;;;;;8.05;4.75;;;;;;;2.10;100.00;101969.66;6219053;22;20004;-95
2023/01/27 05:11:12;;;;;;;11.75;5.00;;;;;;;2.14;100.00;101968.78;6220456;22;20437;-95
2023/01/27 05:13:39;;;;;;;9.27;5.40;;;;;;;2.16;100.00;101960.31;6221943;22;19995;-95
2023/01/27 05:16:09;;;;;;;10.85;5.38;;;;;;;2.25;100.00;101961.19;6221422;22;20031;-95
2023/01/27 05:18:36;;;;;;;8.40;5.43;;;;;;;2.39;100.00;101986.69;6221972;22;20103;-95
2023/01/27 05:21:03;;;;;;;9.55;5.50;;;;;;;2.25;100.00;101973.94;6220715;22;20004;-95
2023/01/27 05:23:34;;;;;;;6.18;5.03;;;;;;;2.28;100.00;101979.03;6221748;22;20008;-95
2023/01/27 05:26:21;;;;;;;8.93;5.13;;;;;;;2.48;100.00;101996.88;6220963;23;20012;-95
2023/01/27 05:28:48;;;;;;;11.95;5.38;;;;;;;2.26;100.00;101974.78;6245386;22;20316;-94
2023/01/27 05:31:27;;;;;;;6.72;4.90;;;;;;;2.39;100.00;101984.16;6220362;22;20038;-94
2023/01/27 05:33:54;;;;;;;9.07;4.70;;;;;;;2.33;100.00;101992.63;6221404;22;20008;-95
2023/01/27 05:36:22;;;;;;;7.65;4.95;;;;;;;2.25;100.00;101986.66;6220864;23;20008;-95
2023/01/27 05:38:48;;;;;;;6.68;4.85;;;;;;;2.24;100.00;101996.84;6221026;22;20012;-95
2023/01/27 05:41:15;;;;;;;6.85;5.20;;;;;;;2.25;100.00;101993.47;6216659;23;20015;-95
2023/01/27 05:43:43;;;;;;;7.78;5.00;;;;;;;2.10;100.00;101977.31;6216030;23;20059;-94
2023/01/27 05:46:17;;;;;;;5.03;4.32;;;;;;;2.16;100.00;101980.69;6216005;23;20060;-95
2023/01/27 05:48:48;;;;;;;7.70;5.65;;;;;;;2.23;100.00;101987.50;6216257;23;20000;-95
2023/01/27 05:51:15;;;;;;;9.70;5.72;;;;;;;2.34;100.00;102013.84;6215888;23;20000;-94
2023/01/27 05:53:41;;;;;;;5.82;5.13;;;;;;;2.14;100.00;101985.78;6215950;23;20514;-95
2023/01/27 05:56:09;;;;;;;9.95;5.80;;;;;;;2.13;100.00;101990.03;6216023;23;20017;-95
2023/01/27 05:58:35;;;;;;;9.18;6.63;;;;;;;2.06;100.00;102002.75;6216335;23;20059;-95
2023/01/27 06:01:15;;;;;;;7.95;5.90;;;;;;;2.00;100.00;101998.50;6216670;23;20005;-95
2023/01/27 06:03:42;;;;;;;11.70;6.32;;;;;;;1.85;100.00;101983.16;6216750;23;20008;-96
2023/01/27 06:06:08;;;;;;;10.02;6.75;;;;;;;2.03;100.00;102005.28;6216382;23;20502;-95
2023/01/27 06:08:35;;;;;;;8.73;6.65;;;;;;;2.02;100.00;101984.03;6216886;23;20343;-95
2023/01/27 06:11:01;;;;;;;12.20;7.38;;;;;;;2.16;100.00;102001.09;6215642;23;20058;-95
2023/01/27 06:13:26;;;;;;;8.20;6.50;;;;;;;2.19;100.00;102001.06;6216321;23;20008;-95
2023/01/27 06:15:54;;;;;;;9.30;6.93;;;;;;;2.18;100.00;101989.19;6215888;23;20009;-95
2023/01/27 06:18:20;;;;;;;11.15;6.43;;;;;;;2.18;100.00;101991.75;6214762;23;20330;-95
2023/01/27 06:20:45;;;;;;;11.10;7.15;;;;;;;2.18;100.00;101999.38;6214974;23;20079;-95
2023/01/27 06:23:13;;;;;;;9.40;6.82;;;;;;;2.19;100.00;101984.09;6214425;23;20312;-95
2023/01/27 06:25:42;;;;;;;9.23;7.10;;;;;;;2.32;100.00;101993.47;6215139;23;20451;-95
2023/01/27 06:28:08;;;;;;;10.38;6.63;;;;;;;2.39;100.00;102016.41;6214833;23;20004;-95
2023/01/27 06:30:35;;;;;;;9.73;7.47;;;;;;;2.22;100.00;101985.78;6214979;23;20005;-95
2023/01/27 06:33:02;;;;;;;8.10;6.25;;;;;;;2.31;100.00;102011.28;6215290;23;20000;-94
2023/01/27 06:35:29;;;;;;;10.10;7.38;;;;;;;2.13;100.00;101984.09;6216261;23;20016;-95
2023/01/27 06:38:02;;;;;;;9.82;6.97;;;;;;;2.34;100.00;101980.72;6219103;23;20100;-95
2023/01/27 06:40:30;;;;;;;10.23;6.80;;;;;;;2.50;100.00;102015.56;6216668;23;20005;-96
2023/01/27 06:42:55;;;;;;;9.40;6.95;;;;;;;2.49;100.00;102006.25;6215516;23;20366;-96
2023/01/27 06:45:21;;;;;;;9.45;6.93;;;;;;;2.34;100.00;101981.59;6215903;23;20051;-95
2023/01/27 06:48:00;;;;;;;10.57;7.10;;;;;;;2.46;100.00;101988.38;6215816;23;20005;-96
2023/01/27 06:50:28;;;;;;;11.32;7.65;;;;;;;2.48;100.00;101999.44;6217028;23;20343;-95
2023/01/27 06:53:03;;;;;;;8.32;6.82;;;;;;;2.48;100.00;101990.94;6215422;23;20008;-94
2023/01/27 06:55:29;;;;;;;11.55;6.88;;;;;;;2.46;100.00;102003.66;6214795;23;20527;-96
2023/01/27 06:57:54;;;;;;;9.85;7.72;;;;;;;2.44;100.00;101989.22;6214459;23;20004;-95
2023/01/27 07:00:20;;;;;;;11.48;8.00;;;;;;;2.65;100.00;102024.09;6214148;23;20001;-94
2023/01/27 07:02:46;;;;;;;10.43;6.60;;;;;;;2.54;100.00;102017.28;6214347;23;20023;-95
2023/01/27 07:05:12;;;;;;;10.10;7.28;;;;;;;2.49;100.00;102006.25;6214487;23;20012;-95
2023/01/27 07:07:38;;;;;;;12.98;7.22;;;;;;;2.35;100.00;101992.63;6214190;23;20004;-95
2023/01/27 07:10:05;;;;;;;12.68;7.47;;;;;;;2.51;100.00;102022.38;6214771;23;20518;-94
2023/01/27 07:12:33;;;;;;;11.40;7.22;;;;;;;2.48;100.00;102017.28;6214371;23;19993;-94
2023/01/27 07:14:59;;;;;;;10.60;7.55;;;;;;;2.33;100.00;101991.78;6214376;23;20004;-94
2023/01/27 07:17:24;;;;;;;9.75;7.00;;;;;;;2.54;100.00;102030.03;6214495;23;20035;-95
2023/01/27 07:19:50;;;;;;;10.80;6.78;;;;;;;2.39;100.00;102002.00;6214934;23;20012;-96
2023/01/27 07:22:15;;;;;;;8.52;6.80;;;;;;;2.28;100.00;101988.38;6214968;23;20434;-95
2023/01/27 07:24:41;;;;;;;10.85;6.97;;;;;;;2.41;100.00;102007.91;6215587;23;20347;-95
2023/01/27 07:27:07;;;;;;;10.30;7.07;;;;;;;2.46;100.00;102018.97;6222431;23;20005;-95
2023/01/27 07:29:32;;;;;;;13.50;7.30;;;;;;;2.31;100.00;101996.00;6217584;23;20067;-94
2023/01/27 07:31:58;;;;;;;11.65;7.93;;;;;;;2.52;100.00;102018.97;6214171;23;20014;-95
2023/01/27 07:34:23;;;;;;;12.40;7.63;;;;;;;2.36;100.00;102004.50;6213997;23;20011;-95
2023/01/27 07:36:49;;;;;;;10.27;7.18;;;;;;;2.43;100.00;102008.78;6214963;23;20015;-96
2023/01/27 07:39:14;;;;;;;13.10;8.18;;;;;;;2.29;100.00;101995.16;6215030;23;20005;-95
2023/01/27 07:41:40;;;;;;;13.50;7.70;;;;;;;2.35;100.00;102002.81;6219135;22;20015;-96
2023/01/27 07:44:05;;;;;;;13.77;9.13;;;;;;;2.28;100.00;101998.56;6219293;22;20004;-95
2023/01/27 07:46:31;;;;;;;12.75;8.23;;;;;;;2.17;100.00;102001.09;6219672;22;20010;-96
2023/01/27 07:48:56;;;;;;;14.65;8.23;;;;;;;2.31;100.00;102006.19;6219792;22;20028;-95
2023/01/27 07:51:22;;;;;;;15.70;9.98;;;;;;;2.39;100.00;102027.47;6219942;23;20008;-95
2023/01/27 07:53:48;;;;;;;13.70;9.73;;;;;;;2.12;100.00;101993.44;6219800;23;20047;-95
2023/01/27 07:56:13;;;;;;;12.77;9.50;;;;;;;2.24;100.00;101996.84;6218998;22;20040;-95
2023/01/27 07:58:40;;;;;;;17.42;10.10;;;;;;;2.34;100.00;101996.88;6219743;22;20004;-94
2023/01/27 08:01:11;;;;;;;13.88;9.38;;;;;;;2.50;100.00;102015.56;6220432;23;20015;-96
2023/01/27 08:03:37;;;;;;;12.63;9.43;;;;;;;2.34;100.00;101993.47;6219620;22;19997;-95
2023/01/27 08:06:08;;;;;;;18.08;11.20;;;;;;;2.31;100.00;101993.47;6220021;22;20011;-96
2023/01/27 08:08:34;;;;;;;18.58;10.60;;;;;;;2.34;100.00;102008.75;6219905;22;20453;-95
2023/01/27 08:11:06;;;;;;;15.75;11.20;;;;;;;2.26;100.00;102006.19;6219725;23;20008;-96
2023/01/27 08:13:32;;;;;;;14.70;10.75;;;;;;;2.50;100.00;102024.94;6219593;23;20330;-95
2023/01/27 08:15:58;;;;;;;14.68;10.85;;;;;;;2.55;100.00;102036.81;6220212;22;20008;-96
2023/01/27 08:18:25;;;;;;;18.30;11.13;;;;;;;2.51;100.00;102014.75;6219371;22;20386;-95
2023/01/27 08:20:53;;;;;;;19.05;11.43;;;;;;;2.53;100.00;102020.66;6219240;22;19996;-96
2023/01/27 08:23:20;;;;;;;16.25;10.93;;;;;;;2.49;100.00;102016.44;6219434;22;20066;-95
2023/01/27 08:25:52;;;;;;;17.17;10.93;;;;;;;2.67;100.00;102037.69;6218820;22;20011;-96
2023/01/27 08:28:19;;;;;;;18.45;10.40;;;;;;;2.62;100.00;102027.50;6221131;22;20434;-95
2023/01/27 08:30:46;;;;;;;16.17;11.20;;;;;;;2.71;100.00;102034.31;6220000;22;19996;-95
2023/01/27 08:33:12;;;;;;;17.10;10.77;;;;;;;2.70;100.00;102033.44;6219888;22;20004;-96
2023/01/27 08:35:41;;;;;;;15.40;10.48;;;;;;;2.72;100.00;102034.28;6219060;22;20012;-96
2023/01/27 08:38:07;;;;;;;17.67;10.82;;;;;;;2.76;100.00;102042.81;6219586;23;20004;-95
2023/01/27 08:40:33;;;;;;;15.63;10.23;;;;;;;2.85;100.00;102053.00;6214329;23;20008;-95
2023/01/27 08:43:00;;;;;;;16.50;11.43;;;;;;;2.85;100.00;102050.44;6214182;23;20009;-95
2023/01/27 08:45:26;;;;;;;14.85;10.20;;;;;;;2.79;100.00;102037.69;6215701;23;20008;-96
2023/01/27 08:47:52;;;;;;;17.52;11.13;;;;;;;3.04;100.00;102078.50;6216333;23;20006;-95
2023/01/27 08:50:18;;;;;;;17.02;10.65;;;;;;;3.01;100.00;102087.00;6216331;23;20024;-96
2023/01/27 08:52:44;;;;;;;19.10;12.02;;;;;;;2.89;100.00;102074.25;6216190;23;20047;-96
2023/01/27 08:55:09;;;;;;;21.13;11.73;;;;;;;3.07;100.00;102084.44;6216299;23;20028;-96
2023/01/27 08:57:37;;;;;;;13.73;10.63;;;;;;;3.17;100.00;102090.41;6221782;23;20005;-96
2023/01/27 09:00:05;;;;;;;16.05;10.35;;;;;;;3.18;100.00;102087.03;6217227;23;20009;-96
2023/01/27 09:02:31;;;;;;;13.10;10.10;;;;;;;3.02;100.00;102059.81;6217122;23;20403;-95
2023/01/27 09:04:59;;;;;;;14.23;9.82;;;;;;;3.17;100.00;102085.31;6216568;23;20005;-94
2023/01/27 09:07:25;;;;;;;13.68;9.85;;;;;;;3.13;100.00;102063.22;6217375;23;20004;-94
2023/01/27 09:09:51;;;;;;;15.68;9.57;;;;;;;3.16;100.00;102068.31;6216690;23;20096;-95
2023/01/27 09:12:16;;;;;;;15.32;9.55;;;;;;;3.15;100.00;102061.50;6216732;23;20056;-96
2023/01/27 09:14:42;;;;;;;10.25;7.43;;;;;;;3.28;100.00;102072.56;6216759;23;20008;-96
2023/01/27 09:17:08;;;;;;;15.60;8.00;;;;;;;3.25;100.00;102068.31;6216025;23;20078;-95
2023/01/27 09:19:33;;;;;;;10.48;6.68;;;;;;;3.45;100.00;102077.66;6217198;23;20008;-95
2023/01/27 09:21:59;;;;;;;11.02;7.28;;;;;;;3.42;100.00;102066.59;6216581;23;20005;-95
2023/01/27 09:24:25;;;;;;;8.90;6.60;;;;;;;3.55;100.00;102077.59;6217507;23;20005;-95
2023/01/27 09:26:50;;;;;;;9.07;6.13;;;;;;;3.60;100.00;102087.81;6217290;23;20423;-96
2023/01/27 09:29:16;;;;;;;11.02;6.40;;;;;;;3.63;100.00;102080.16;6217678;23;20036;-95
2023/01/27 09:31:42;;;;;;;13.68;7.28;;;;;;;3.57;100.00;102068.25;6216459;23;20083;-95
2023/01/27 09:34:07;;;;;;;12.52;6.97;;;;;;;3.67;100.00;102081.84;6215224;23;20380;-96
2023/01/27 09:36:39;;;;;;;12.07;6.68;;;;;;;3.84;99.68;102110.75;6215775;23;20096;-95
2023/01/27 09:39:07;;;;;;;12.02;5.05;;;;;;;3.70;97.99;102097.16;6213383;23;20091;-95
2023/01/27 09:41:42;;;;;;;8.48;4.75;;;;;;;4.02;99.97;102126.88;6211647;23;20427;-93
2023/01/27 09:44:27;;;;;;;7.05;4.43;;;;;;;3.94;97.24;102132.00;6213974;23;20465;-94
2023/01/27 09:47:38;;;;;;;10.40;5.38;;;;;;;3.95;100.00;102137.94;6214370;23;20013;-94
2023/01/27 09:50:43;;;;;;;9.77;6.28;;;;;;;3.99;100.00;102148.16;6214930;23;20015;-95
2023/01/27 09:53:55;;;;;;;9.38;5.85;;;;;;;4.06;100.00;102126.84;6233269;22;20093;-94
2023/01/27 09:56:34;;;;;;;8.82;6.38;;;;;;;4.05;99.02;102102.16;6156553;23;20112;-95
2023/01/27 09:59:14;;;;;;;12.75;6.30;;;;;;;4.29;98.28;102151.47;6264771;22;20004;-95
2023/01/27 10:01:45;;;;;;;10.98;5.57;;;;;;;4.29;95.42;102147.22;6243797;22;20039;-95
2023/01/27 10:04:16;;;;;;;7.30;4.03;;;;;;;4.39;96.12;102149.72;6242393;22;20106;-94
2023/01/27 10:06:57;;;;;;;11.07;4.75;;;;;;;4.28;95.22;102132.72;6249868;22;20023;-95
2023/01/27 10:09:38;;;;;;;7.57;4.00;;;;;;;4.27;94.35;102148.94;6246278;22;20409;-94
2023/01/27 10:12:29;;;;;;;5.18;3.80;;;;;;;4.39;91.79;102144.63;6241611;22;20008;-95
2023/01/27 10:15:08;;;;;;;8.27;3.90;;;;;;;4.46;92.36;102136.06;6242111;22;20008;-96
2023/01/27 10:17:59;;;;;;;3.78;2.20;;;;;;;4.32;89.66;102142.94;6241980;22;20008;-95
2023/01/27 10:21:04;;;;;;;;;;;;;;;;;;;;;
2023/01/27 10:24:08;;;;;;;3.80;1.75;;;;;;;4.40;84.30;102110.53;6247396;22;20510;-96
2023/01/27 10:27:07;;;;;;;5.38;1.55;;;;;;;4.56;86.42;102142.84;6246824;22;20004;-96
2023/01/27 10:29:50;;;;;;;8.77;2.08;;;;;;;4.47;87.08;102117.31;6246168;22;20054;-96
2023/01/27 10:32:41;;;;;;;6.18;2.28;;;;;;;4.52;86.84;102130.94;6244725;22;20004;-94
2023/01/27 10:35:08;;;;;;;6.68;2.30;;;;;;;4.49;84.27;102151.41;6246158;22;20008;-96
2023/01/27 10:37:41;;;;;;;4.90;2.10;;;;;;;4.56;85.54;102162.44;6245406;22;20040;-94
2023/01/27 10:40:40;;;;;;;5.45;2.20;;;;;;;4.52;87.43;102145.44;6245361;22;20061;-96
2023/01/27 10:43:23;;;;;;;8.75;1.88;;;;;;;4.56;88.25;102153.09;6244888;22;20008;-93
2023/01/27 10:45:55;;;;;;;4.00;2.00;;;;;;;4.63;87.10;102149.63;6244820;22;20007;-95
2023/01/27 10:48:42;;;;;;;8.07;1.90;;;;;;;4.81;85.65;102137.59;6243793;22;20091;-94
2023/01/27 10:51:20;;;;;;;4.63;1.50;;;;;;;4.76;84.80;102150.41;6244484;22;20099;-96
2023/01/27 10:54:04;;;;;;;4.30;1.27;;;;;;;4.74;84.54;102125.72;6244665;22;20015;-95
2023/01/27 10:56:58;;;;;;;3.63;1.00;;;;;;;4.90;81.13;102151.19;6244075;22;20069;-95
2023/01/27 10:59:39;;;;;;;8.35;1.30;;;;;;;5.00;82.14;102143.44;6244253;22;20008;-95
2023/01/27 11:02:23;;;;;;;4.93;2.00;;;;;;;4.97;82.43;102110.19;6243821;22;20008;-95
2023/01/27 11:04:57;;;;;;;5.38;1.20;;;;;;;5.23;81.89;102120.22;6245248;22;20065;-95
2023/01/27 11:07:24;;;;;;;8.20;1.45;;;;;;;5.28;81.21;102123.59;6247509;22;20154;-95
2023/01/27 11:10:16;;;;;;;4.63;1.63;;;;;;;5.25;80.29;102114.25;6246555;22;20004;-96
2023/01/27 11:12:47;;;;;;;4.88;1.30;;;;;;;5.22;80.57;102118.53;6247304;22;20008;-95
2023/01/27 11:15:34;;;;;;;5.37;1.43;;;;;;;5.51;80.10;102136.19;6247813;22;20066;-95
2023/01/27 11:18:22;;;;;;;3.05;0.88;;;;;;;5.12;79.60;102098.13;6248330;22;20572;-95
2023/01/27 11:21:14;;;;;;;4.55;0.88;;;;;;;5.47;77.11;102088.44;6245799;22;20035;-95
2023/01/27 11:23:44;;;;;;;4.20;1.00;;;;;;;5.71;78.48;102095.88;6246768;22;20011;-94
2023/01/27 11:26:25;;;;;;;6.13;1.17;;;;;;;5.62;77.11;102087.44;6246286;22;20008;-95
2023/01/27 11:29:01;;;;;;;5.78;1.58;;;;;;;5.85;77.89;102089.75;6244310;22;20030;-93
2023/01/27 11:31:38;;;;;;;5.97;2.30;;;;;;;5.87;78.98;102088.00;6244776;22;20092;-93
2023/01/27 11:34:09;;;;;;;9.38;3.85;;;;;;;5.87;80.60;102109.34;6245189;22;20008;-96
2023/01/27 11:36:35;;;;;;;6.68;4.57;;;;;;;5.78;80.78;102088.97;6244344;22;20008;-94
2023/01/27 11:39:03;;;;;;;10.90;4.88;;;;;;;5.94;80.31;102105.91;6244700;22;20564;-93
2023/01/27 11:41:33;;;;;;;9.43;3.70;;;;;;;6.05;80.99;102092.97;6245893;22;20418;-95
2023/01/27 11:44:05;;;;;;;8.27;4.07;;;;;;;5.97;79.59;102061.44;6245549;22;20035;-95
2023/01/27 11:46:31;;;;;;;12.32;4.25;;;;;;;6.25;79.24;102084.19;6245412;22;20005;-96
2023/01/27 11:48:58;;;;;;;9.13;4.47;;;;;;;6.08;79.73;102067.28;6244649;22;20042;-93
2023/01/27 11:51:27;;;;;;;6.90;5.00;;;;;;;6.36;79.34;102090.84;6244601;22;20008;-94
2023/01/27 11:54:05;;;;;;;7.32;5.18;;;;;;;6.25;79.99;102094.44;6244122;22;20008;-95
2023/01/27 11:56:34;;;;;;;10.32;5.47;;;;;;;6.03;79.94;102057.97;6244426;22;20019;-96
2023/01/27 11:59:17;;;;;;;9.43;4.93;;;;;;;6.02;80.39;102041.72;6245419;22;20339;-96
2023/01/27 12:01:51;;;;;;;7.65;4.53;;;;;;;5.97;80.64;102046.94;6245584;22;20073;-95
2023/01/27 12:04:33;;;;;;;9.50;5.32;;;;;;;5.83;81.08;102051.34;6245691;22;20143;-95
2023/01/27 12:07:03;;;;;;;11.38;5.70;;;;;;;6.03;81.67;102084.44;6245564;22;20031;-96
2023/01/27 12:09:40;;;;;;;9.00;5.57;;;;;;;5.86;81.05;102050.47;6246231;22;20054;-96